sensor_id;sensor_type;location;lat;lon;timestamp;P1;durP1;ratioP1;P2;durP2;ratioP2
30872;SDS011;17579;42.690;2.586;2023-02-12T00:01:12;17.75;;;15.02;;
30872;SDS011;17579;42.690;2.586;2023-02-12T00:03:38;19.52;;;15.70;;
30872;SDS011;17579;42.690;2.586;2023-02-12T00:06:04;18.83;;;15.73;;
30872;SDS011;17579;42.690;2.586;2023-02-12T00:08:31;22.13;;;15.65;;
30872;SDS011;17579;42.690;2.586;2023-02-12T00:10:56;19.00;;;14.98;;
30872;SDS011;17579;42.690;2.586;2023-02-12T00:13:22;19.02;;;15.32;;
30872;SDS011;17579;42.690;2.586;2023-02-12T00:15:48;20.70;;;16.80;;
30872;SDS011;17579;42.690;2.586;2023-02-12T00:18:14;19.27;;;15.50;;
30872;SDS011;17579;42.690;2.586;2023-02-12T00:20:40;19.98;;;15.07;;
30872;SDS011;17579;42.690;2.586;2023-02-12T00:23:06;20.65;;;15.70;;
30872;SDS011;17579;42.690;2.586;2023-02-12T00:25:32;19.33;;;15.68;;
30872;SDS011;17579;42.690;2.586;2023-02-12T00:27:58;21.48;;;15.98;;
30872;SDS011;17579;42.690;2.586;2023-02-12T00:30:24;18.88;;;15.27;;
30872;SDS011;17579;42.690;2.586;2023-02-12T00:32:50;18.38;;;15.35;;
30872;SDS011;17579;42.690;2.586;2023-02-12T00:35:15;18.35;;;14.63;;
30872;SDS011;17579;42.690;2.586;2023-02-12T00:37:41;21.30;;;15.25;;
30872;SDS011;17579;42.690;2.586;2023-02-12T00:40:07;17.20;;;14.02;;
30872;SDS011;17579;42.690;2.586;2023-02-12T00:42:33;19.65;;;14.85;;
30872;SDS011;17579;42.690;2.586;2023-02-12T00:44:59;18.73;;;15.38;;
30872;SDS011;17579;42.690;2.586;2023-02-12T00:47:24;23.48;;;16.70;;
30872;SDS011;17579;42.690;2.586;2023-02-12T00:49:50;19.25;;;15.18;;
30872;SDS011;17579;42.690;2.586;2023-02-12T00:52:15;19.52;;;16.00;;
30872;SDS011;17579;42.690;2.586;2023-02-12T00:54:41;21.33;;;15.48;;
30872;SDS011;17579;42.690;2.586;2023-02-12T00:57:07;18.92;;;15.23;;
30872;SDS011;17579;42.690;2.586;2023-02-12T00:59:32;18.38;;;14.77;;
30872;SDS011;17579;42.690;2.586;2023-02-12T01:02:00;20.77;;;16.15;;
30872;SDS011;17579;42.690;2.586;2023-02-12T01:04:26;18.58;;;15.40;;
30872;SDS011;17579;42.690;2.586;2023-02-12T01:06:51;18.83;;;14.43;;
30872;SDS011;17579;42.690;2.586;2023-02-12T01:09:17;17.90;;;14.20;;
30872;SDS011;17579;42.690;2.586;2023-02-12T01:11:43;18.75;;;15.25;;
30872;SDS011;17579;42.690;2.586;2023-02-12T01:14:08;16.98;;;14.30;;
30872;SDS011;17579;42.690;2.586;2023-02-12T01:16:34;18.00;;;14.32;;
30872;SDS011;17579;42.690;2.586;2023-02-12T01:19:00;18.65;;;13.52;;
30872;SDS011;17579;42.690;2.586;2023-02-12T01:21:29;19.58;;;15.18;;
30872;SDS011;17579;42.690;2.586;2023-02-12T01:23:56;17.60;;;14.98;;
30872;SDS011;17579;42.690;2.586;2023-02-12T01:26:23;17.25;;;13.63;;
30872;SDS011;17579;42.690;2.586;2023-02-12T01:28:51;16.17;;;13.50;;
30872;SDS011;17579;42.690;2.586;2023-02-12T01:31:19;17.90;;;13.88;;
30872;SDS011;17579;42.690;2.586;2023-02-12T01:33:47;20.33;;;15.75;;
30872;SDS011;17579;42.690;2.586;2023-02-12T01:36:14;22.30;;;14.75;;
30872;SDS011;17579;42.690;2.586;2023-02-12T01:38:40;20.02;;;15.20;;
30872;SDS011;17579;42.690;2.586;2023-02-12T01:41:07;20.50;;;16.35;;
30872;SDS011;17579;42.690;2.586;2023-02-12T01:43:35;17.92;;;14.30;;
30872;SDS011;17579;42.690;2.586;2023-02-12T01:46:02;18.38;;;15.13;;
30872;SDS011;17579;42.690;2.586;2023-02-12T01:48:30;15.95;;;14.25;;
30872;SDS011;17579;42.690;2.586;2023-02-12T01:50:58;19.02;;;13.70;;
30872;SDS011;17579;42.690;2.586;2023-02-12T01:53:28;19.85;;;14.68;;
30872;SDS011;17579;42.690;2.586;2023-02-12T01:55:59;18.50;;;14.57;;
30872;SDS011;17579;42.690;2.586;2023-02-12T01:58:27;18.58;;;14.93;;
30872;SDS011;17579;42.690;2.586;2023-02-12T02:00:56;19.10;;;14.52;;
30872;SDS011;17579;42.690;2.586;2023-02-12T02:03:27;20.40;;;15.50;;
30872;SDS011;17579;42.690;2.586;2023-02-12T02:05:55;22.45;;;16.00;;
30872;SDS011;17579;42.690;2.586;2023-02-12T02:08:30;15.80;;;13.05;;
30872;SDS011;17579;42.690;2.586;2023-02-12T02:10:58;18.70;;;14.60;;
30872;SDS011;17579;42.690;2.586;2023-02-12T02:13:24;19.88;;;15.25;;
30872;SDS011;17579;42.690;2.586;2023-02-12T02:15:52;23.00;;;16.77;;
30872;SDS011;17579;42.690;2.586;2023-02-12T02:21:04;20.65;;;15.15;;
30872;SDS011;17579;42.690;2.586;2023-02-12T02:23:58;21.38;;;15.50;;
30872;SDS011;17579;42.690;2.586;2023-02-12T02:29:35;17.17;;;14.48;;
30872;SDS011;17579;42.690;2.586;2023-02-12T02:32:09;20.38;;;16.42;;
30872;SDS011;17579;42.690;2.586;2023-02-12T02:34:43;23.10;;;17.30;;
30872;SDS011;17579;42.690;2.586;2023-02-12T02:37:38;18.70;;;15.25;;
30872;SDS011;17579;42.690;2.586;2023-02-12T02:40:13;25.60;;;17.00;;
30872;SDS011;17579;42.690;2.586;2023-02-12T02:42:52;23.58;;;17.80;;
30872;SDS011;17579;42.690;2.586;2023-02-12T02:45:26;22.58;;;16.00;;
30872;SDS011;17579;42.690;2.586;2023-02-12T02:50:39;23.90;;;17.40;;
30872;SDS011;17579;42.690;2.586;2023-02-12T02:53:10;21.75;;;16.58;;
30872;SDS011;17579;42.690;2.586;2023-02-12T02:55:41;22.15;;;16.70;;
30872;SDS011;17579;42.690;2.586;2023-02-12T02:58:12;23.05;;;16.73;;
30872;SDS011;17579;42.690;2.586;2023-02-12T03:00:44;21.52;;;16.25;;
30872;SDS011;17579;42.690;2.586;2023-02-12T03:03:18;21.75;;;16.55;;
30872;SDS011;17579;42.690;2.586;2023-02-12T03:05:54;22.73;;;16.77;;
30872;SDS011;17579;42.690;2.586;2023-02-12T03:08:28;23.95;;;16.75;;
30872;SDS011;17579;42.690;2.586;2023-02-12T03:11:02;22.00;;;16.65;;
30872;SDS011;17579;42.690;2.586;2023-02-12T03:18:53;22.02;;;17.52;;
30872;SDS011;17579;42.690;2.586;2023-02-12T03:21:28;25.42;;;19.17;;
30872;SDS011;17579;42.690;2.586;2023-02-12T03:24:01;21.80;;;16.73;;
30872;SDS011;17579;42.690;2.586;2023-02-12T03:26:44;24.48;;;18.08;;
30872;SDS011;17579;42.690;2.586;2023-02-12T03:29:12;23.70;;;18.45;;
30872;SDS011;17579;42.690;2.586;2023-02-12T03:31:42;26.92;;;18.98;;
30872;SDS011;17579;42.690;2.586;2023-02-12T03:37:12;23.40;;;18.23;;
30872;SDS011;17579;42.690;2.586;2023-02-12T03:39:48;29.63;;;19.13;;
30872;SDS011;17579;42.690;2.586;2023-02-12T03:42:23;23.05;;;17.70;;
30872;SDS011;17579;42.690;2.586;2023-02-12T03:45:03;26.23;;;18.50;;
30872;SDS011;17579;42.690;2.586;2023-02-12T03:47:38;24.85;;;17.73;;
30872;SDS011;17579;42.690;2.586;2023-02-12T03:52:56;21.30;;;16.90;;
30872;SDS011;17579;42.690;2.586;2023-02-12T03:55:22;26.88;;;17.58;;
30872;SDS011;17579;42.690;2.586;2023-02-12T03:57:50;25.25;;;18.33;;
30872;SDS011;17579;42.690;2.586;2023-02-12T04:00:23;22.63;;;17.77;;
30872;SDS011;17579;42.690;2.586;2023-02-12T04:02:52;23.98;;;17.42;;
30872;SDS011;17579;42.690;2.586;2023-02-12T04:05:21;20.75;;;17.38;;
30872;SDS011;17579;42.690;2.586;2023-02-12T04:07:48;26.48;;;17.92;;
30872;SDS011;17579;42.690;2.586;2023-02-12T04:10:16;22.10;;;17.83;;
30872;SDS011;17579;42.690;2.586;2023-02-12T04:13:01;23.25;;;17.95;;
30872;SDS011;17579;42.690;2.586;2023-02-12T04:15:39;22.60;;;17.48;;
30872;SDS011;17579;42.690;2.586;2023-02-12T04:18:14;21.67;;;16.55;;
30872;SDS011;17579;42.690;2.586;2023-02-12T04:20:47;21.42;;;16.95;;
30872;SDS011;17579;42.690;2.586;2023-02-12T04:25:51;22.60;;;16.52;;
30872;SDS011;17579;42.690;2.586;2023-02-12T04:28:42;22.30;;;16.67;;
30872;SDS011;17579;42.690;2.586;2023-02-12T04:31:22;20.80;;;16.02;;
30872;SDS011;17579;42.690;2.586;2023-02-12T04:33:55;21.13;;;16.00;;
30872;SDS011;17579;42.690;2.586;2023-02-12T04:36:26;21.38;;;17.25;;
30872;SDS011;17579;42.690;2.586;2023-02-12T04:38:59;21.88;;;16.25;;
30872;SDS011;17579;42.690;2.586;2023-02-12T04:41:29;23.83;;;17.75;;
30872;SDS011;17579;42.690;2.586;2023-02-12T04:43:55;22.40;;;16.38;;
30872;SDS011;17579;42.690;2.586;2023-02-12T04:46:21;21.30;;;16.85;;
30872;SDS011;17579;42.690;2.586;2023-02-12T04:48:56;21.67;;;16.05;;
30872;SDS011;17579;42.690;2.586;2023-02-12T04:51:22;21.63;;;16.15;;
30872;SDS011;17579;42.690;2.586;2023-02-12T04:53:48;22.05;;;16.00;;
30872;SDS011;17579;42.690;2.586;2023-02-12T04:56:15;18.75;;;15.27;;
30872;SDS011;17579;42.690;2.586;2023-02-12T04:58:41;23.52;;;17.75;;
30872;SDS011;17579;42.690;2.586;2023-02-12T05:01:07;22.92;;;16.98;;
30872;SDS011;17579;42.690;2.586;2023-02-12T05:03:34;26.20;;;17.63;;
30872;SDS011;17579;42.690;2.586;2023-02-12T05:06:01;20.48;;;15.82;;
30872;SDS011;17579;42.690;2.586;2023-02-12T05:08:29;22.60;;;16.95;;
30872;SDS011;17579;42.690;2.586;2023-02-12T05:10:56;24.00;;;16.85;;
30872;SDS011;17579;42.690;2.586;2023-02-12T05:13:26;22.23;;;16.95;;
30872;SDS011;17579;42.690;2.586;2023-02-12T05:15:52;21.10;;;16.98;;
30872;SDS011;17579;42.690;2.586;2023-02-12T05:18:17;22.48;;;17.15;;
30872;SDS011;17579;42.690;2.586;2023-02-12T05:20:43;21.45;;;16.23;;
30872;SDS011;17579;42.690;2.586;2023-02-12T05:23:09;25.92;;;17.17;;
30872;SDS011;17579;42.690;2.586;2023-02-12T05:25:34;19.42;;;15.70;;
30872;SDS011;17579;42.690;2.586;2023-02-12T05:28:00;24.85;;;17.35;;
30872;SDS011;17579;42.690;2.586;2023-02-12T05:30:26;21.98;;;16.58;;
30872;SDS011;17579;42.690;2.586;2023-02-12T05:32:51;24.35;;;15.68;;
30872;SDS011;17579;42.690;2.586;2023-02-12T05:35:17;22.25;;;16.50;;
30872;SDS011;17579;42.690;2.586;2023-02-12T05:37:43;22.48;;;15.43;;
30872;SDS011;17579;42.690;2.586;2023-02-12T05:40:08;21.80;;;15.35;;
30872;SDS011;17579;42.690;2.586;2023-02-12T05:42:34;20.98;;;15.82;;
30872;SDS011;17579;42.690;2.586;2023-02-12T05:45:00;22.40;;;15.15;;
30872;SDS011;17579;42.690;2.586;2023-02-12T05:47:26;19.52;;;16.45;;
30872;SDS011;17579;42.690;2.586;2023-02-12T05:49:52;20.60;;;16.17;;
30872;SDS011;17579;42.690;2.586;2023-02-12T05:52:17;21.75;;;15.23;;
30872;SDS011;17579;42.690;2.586;2023-02-12T05:54:43;21.98;;;15.57;;
30872;SDS011;17579;42.690;2.586;2023-02-12T05:57:09;19.05;;;14.93;;
30872;SDS011;17579;42.690;2.586;2023-02-12T05:59:34;21.17;;;17.15;;
30872;SDS011;17579;42.690;2.586;2023-02-12T06:02:00;20.58;;;15.75;;
30872;SDS011;17579;42.690;2.586;2023-02-12T06:04:26;24.23;;;15.80;;
30872;SDS011;17579;42.690;2.586;2023-02-12T06:06:53;19.92;;;15.73;;
30872;SDS011;17579;42.690;2.586;2023-02-12T06:09:20;17.92;;;14.73;;
30872;SDS011;17579;42.690;2.586;2023-02-12T06:11:46;17.13;;;14.55;;
30872;SDS011;17579;42.690;2.586;2023-02-12T06:14:13;20.50;;;15.52;;
30872;SDS011;17579;42.690;2.586;2023-02-12T06:16:42;20.52;;;15.85;;
30872;SDS011;17579;42.690;2.586;2023-02-12T06:19:10;20.08;;;15.15;;
30872;SDS011;17579;42.690;2.586;2023-02-12T06:21:37;20.80;;;15.23;;
30872;SDS011;17579;42.690;2.586;2023-02-12T06:24:02;20.95;;;15.80;;
30872;SDS011;17579;42.690;2.586;2023-02-12T06:26:28;18.35;;;15.18;;
30872;SDS011;17579;42.690;2.586;2023-02-12T06:28:55;20.33;;;15.35;;
30872;SDS011;17579;42.690;2.586;2023-02-12T06:31:22;19.55;;;14.70;;
30872;SDS011;17579;42.690;2.586;2023-02-12T06:33:50;16.63;;;14.20;;
30872;SDS011;17579;42.690;2.586;2023-02-12T06:36:16;19.48;;;14.77;;
30872;SDS011;17579;42.690;2.586;2023-02-12T06:38:43;18.73;;;14.32;;
30872;SDS011;17579;42.690;2.586;2023-02-12T06:41:09;20.08;;;14.82;;
30872;SDS011;17579;42.690;2.586;2023-02-12T06:43:35;18.60;;;14.75;;
30872;SDS011;17579;42.690;2.586;2023-02-12T06:46:01;17.70;;;14.40;;
30872;SDS011;17579;42.690;2.586;2023-02-12T06:48:28;17.85;;;14.32;;
30872;SDS011;17579;42.690;2.586;2023-02-12T06:50:54;17.05;;;13.85;;
30872;SDS011;17579;42.690;2.586;2023-02-12T06:53:19;17.80;;;13.98;;
30872;SDS011;17579;42.690;2.586;2023-02-12T06:55:45;19.55;;;14.52;;
30872;SDS011;17579;42.690;2.586;2023-02-12T06:58:10;17.33;;;14.02;;
30872;SDS011;17579;42.690;2.586;2023-02-12T07:00:36;17.08;;;14.27;;
30872;SDS011;17579;42.690;2.586;2023-02-12T07:03:02;18.92;;;13.65;;
30872;SDS011;17579;42.690;2.586;2023-02-12T07:05:28;18.30;;;14.73;;
30872;SDS011;17579;42.690;2.586;2023-02-12T07:07:53;22.75;;;18.17;;
30872;SDS011;17579;42.690;2.586;2023-02-12T07:10:19;24.38;;;15.95;;
30872;SDS011;17579;42.690;2.586;2023-02-12T07:12:44;21.85;;;16.95;;
30872;SDS011;17579;42.690;2.586;2023-02-12T07:15:10;19.25;;;15.07;;
30872;SDS011;17579;42.690;2.586;2023-02-12T07:17:36;23.67;;;14.80;;
30872;SDS011;17579;42.690;2.586;2023-02-12T07:20:03;21.23;;;15.50;;
30872;SDS011;17579;42.690;2.586;2023-02-12T07:22:29;22.77;;;17.92;;
30872;SDS011;17579;42.690;2.586;2023-02-12T07:24:55;27.17;;;20.00;;
30872;SDS011;17579;42.690;2.586;2023-02-12T07:27:20;23.15;;;17.80;;
30872;SDS011;17579;42.690;2.586;2023-02-12T07:29:46;20.15;;;15.75;;
30872;SDS011;17579;42.690;2.586;2023-02-12T07:32:12;19.45;;;15.65;;
30872;SDS011;17579;42.690;2.586;2023-02-12T07:34:39;21.42;;;14.82;;
30872;SDS011;17579;42.690;2.586;2023-02-12T07:37:05;16.38;;;13.98;;
30872;SDS011;17579;42.690;2.586;2023-02-12T07:39:31;19.33;;;15.27;;
30872;SDS011;17579;42.690;2.586;2023-02-12T07:41:57;19.02;;;14.68;;
30872;SDS011;17579;42.690;2.586;2023-02-12T07:44:22;18.58;;;14.00;;
30872;SDS011;17579;42.690;2.586;2023-02-12T07:46:48;17.40;;;13.75;;
30872;SDS011;17579;42.690;2.586;2023-02-12T07:49:15;18.40;;;14.80;;
30872;SDS011;17579;42.690;2.586;2023-02-12T07:51:42;18.52;;;15.23;;
30872;SDS011;17579;42.690;2.586;2023-02-12T07:54:09;20.02;;;15.00;;
30872;SDS011;17579;42.690;2.586;2023-02-12T07:56:35;16.90;;;14.05;;
30872;SDS011;17579;42.690;2.586;2023-02-12T07:59:05;23.38;;;14.93;;
30872;SDS011;17579;42.690;2.586;2023-02-12T08:01:35;20.13;;;14.18;;
30872;SDS011;17579;42.690;2.586;2023-02-12T08:04:04;18.33;;;13.80;;
30872;SDS011;17579;42.690;2.586;2023-02-12T08:06:33;21.38;;;15.82;;
30872;SDS011;17579;42.690;2.586;2023-02-12T08:09:02;21.58;;;15.85;;
30872;SDS011;17579;42.690;2.586;2023-02-12T08:11:28;18.98;;;15.85;;
30872;SDS011;17579;42.690;2.586;2023-02-12T08:13:55;23.70;;;16.52;;
30872;SDS011;17579;42.690;2.586;2023-02-12T08:16:23;24.77;;;16.27;;
30872;SDS011;17579;42.690;2.586;2023-02-12T08:18:50;21.80;;;15.25;;
30872;SDS011;17579;42.690;2.586;2023-02-12T08:21:17;21.48;;;17.13;;
30872;SDS011;17579;42.690;2.586;2023-02-12T08:23:45;21.02;;;15.68;;
30872;SDS011;17579;42.690;2.586;2023-02-12T08:26:16;21.95;;;15.40;;
30872;SDS011;17579;42.690;2.586;2023-02-12T08:28:45;17.40;;;13.68;;
30872;SDS011;17579;42.690;2.586;2023-02-12T08:31:14;18.05;;;14.25;;
30872;SDS011;17579;42.690;2.586;2023-02-12T08:33:43;20.90;;;14.75;;
30872;SDS011;17579;42.690;2.586;2023-02-12T08:36:11;18.10;;;13.90;;
30872;SDS011;17579;42.690;2.586;2023-02-12T08:38:39;18.50;;;14.43;;
30872;SDS011;17579;42.690;2.586;2023-02-12T08:41:07;16.13;;;13.75;;
30872;SDS011;17579;42.690;2.586;2023-02-12T08:43:33;17.27;;;14.43;;
30872;SDS011;17579;42.690;2.586;2023-02-12T08:46:00;18.83;;;15.65;;
30872;SDS011;17579;42.690;2.586;2023-02-12T08:48:34;19.63;;;15.55;;
30872;SDS011;17579;42.690;2.586;2023-02-12T08:53:28;21.48;;;16.10;;
30872;SDS011;17579;42.690;2.586;2023-02-12T08:55:53;17.92;;;14.93;;
30872;SDS011;17579;42.690;2.586;2023-02-12T08:58:19;21.27;;;14.43;;
30872;SDS011;17579;42.690;2.586;2023-02-12T09:00:44;19.88;;;13.57;;
30872;SDS011;17579;42.690;2.586;2023-02-12T09:03:10;18.02;;;13.55;;
30872;SDS011;17579;42.690;2.586;2023-02-12T09:08:02;18.00;;;14.48;;
30872;SDS011;17579;42.690;2.586;2023-02-12T09:10:28;17.88;;;14.43;;
30872;SDS011;17579;42.690;2.586;2023-02-12T09:12:54;19.55;;;14.80;;
30872;SDS011;17579;42.690;2.586;2023-02-12T09:15:19;18.60;;;14.07;;
30872;SDS011;17579;42.690;2.586;2023-02-12T09:17:45;20.23;;;15.50;;
30872;SDS011;17579;42.690;2.586;2023-02-12T09:20:10;19.80;;;14.85;;
30872;SDS011;17579;42.690;2.586;2023-02-12T09:22:36;18.05;;;14.02;;
30872;SDS011;17579;42.690;2.586;2023-02-12T09:25:03;16.27;;;14.48;;
30872;SDS011;17579;42.690;2.586;2023-02-12T09:27:30;20.05;;;14.90;;
30872;SDS011;17579;42.690;2.586;2023-02-12T09:29:56;18.17;;;14.75;;
30872;SDS011;17579;42.690;2.586;2023-02-12T09:32:21;16.90;;;14.25;;
30872;SDS011;17579;42.690;2.586;2023-02-12T09:34:47;17.15;;;13.98;;
30872;SDS011;17579;42.690;2.586;2023-02-12T09:37:13;20.15;;;14.70;;
30872;SDS011;17579;42.690;2.586;2023-02-12T09:39:38;19.13;;;12.90;;
30872;SDS011;17579;42.690;2.586;2023-02-12T09:44:44;17.80;;;13.27;;
30872;SDS011;17579;42.690;2.586;2023-02-12T09:52:33;15.73;;;12.95;;
30872;SDS011;17579;42.690;2.586;2023-02-12T09:54:59;17.25;;;13.95;;
30872;SDS011;17579;42.690;2.586;2023-02-12T09:57:28;19.30;;;13.82;;
30872;SDS011;17579;42.690;2.586;2023-02-12T10:00:00;18.10;;;14.15;;
30872;SDS011;17579;42.690;2.586;2023-02-12T10:02:49;18.95;;;13.07;;
30872;SDS011;17579;42.690;2.586;2023-02-12T10:05:18;19.40;;;13.90;;
30872;SDS011;17579;42.690;2.586;2023-02-12T10:07:53;14.95;;;12.60;;
30872;SDS011;17579;42.690;2.586;2023-02-12T10:10:27;13.38;;;11.70;;
30872;SDS011;17579;42.690;2.586;2023-02-12T10:13:07;16.73;;;12.98;;
30872;SDS011;17579;42.690;2.586;2023-02-12T10:15:46;14.73;;;12.52;;
30872;SDS011;17579;42.690;2.586;2023-02-12T10:23:59;16.10;;;13.13;;
30872;SDS011;17579;42.690;2.586;2023-02-12T10:26:40;14.00;;;12.02;;
30872;SDS011;17579;42.690;2.586;2023-02-12T10:29:12;13.48;;;11.13;;
30872;SDS011;17579;42.690;2.586;2023-02-12T10:31:43;13.77;;;11.73;;
30872;SDS011;17579;42.690;2.586;2023-02-12T10:36:43;12.48;;;11.18;;
30872;SDS011;17579;42.690;2.586;2023-02-12T10:39:13;14.75;;;11.63;;
30872;SDS011;17579;42.690;2.586;2023-02-12T10:41:51;13.05;;;10.45;;
30872;SDS011;17579;42.690;2.586;2023-02-12T10:44:32;11.60;;;10.25;;
30872;SDS011;17579;42.690;2.586;2023-02-12T10:46:58;11.75;;;10.43;;
30872;SDS011;17579;42.690;2.586;2023-02-12T10:49:23;13.35;;;10.25;;
30872;SDS011;17579;42.690;2.586;2023-02-12T10:51:56;10.43;;;9.00;;
30872;SDS011;17579;42.690;2.586;2023-02-12T10:54:44;9.90;;;8.85;;
30872;SDS011;17579;42.690;2.586;2023-02-12T10:57:27;15.43;;;9.82;;
30872;SDS011;17579;42.690;2.586;2023-02-12T10:59:56;12.68;;;9.40;;
30872;SDS011;17579;42.690;2.586;2023-02-12T11:02:38;11.85;;;9.25;;
30872;SDS011;17579;42.690;2.586;2023-02-12T11:07:31;10.20;;;8.38;;
30872;SDS011;17579;42.690;2.586;2023-02-12T11:10:18;9.82;;;8.65;;
30872;SDS011;17579;42.690;2.586;2023-02-12T11:12:45;12.88;;;9.43;;
30872;SDS011;17579;42.690;2.586;2023-02-12T11:15:17;12.10;;;9.88;;
30872;SDS011;17579;42.690;2.586;2023-02-12T11:20:27;11.10;;;9.57;;
30872;SDS011;17579;42.690;2.586;2023-02-12T11:22:55;13.18;;;9.57;;
30872;SDS011;17579;42.690;2.586;2023-02-12T11:25:25;10.75;;;9.43;;
30872;SDS011;17579;42.690;2.586;2023-02-12T11:30:21;16.80;;;11.35;;
30872;SDS011;17579;42.690;2.586;2023-02-12T11:32:47;13.25;;;10.93;;
30872;SDS011;17579;42.690;2.586;2023-02-12T11:35:21;12.35;;;10.13;;
30872;SDS011;17579;42.690;2.586;2023-02-12T11:37:51;10.52;;;9.07;;
30872;SDS011;17579;42.690;2.586;2023-02-12T11:40:20;11.23;;;9.35;;
30872;SDS011;17579;42.690;2.586;2023-02-12T11:42:51;11.98;;;10.13;;
30872;SDS011;17579;42.690;2.586;2023-02-12T11:45:22;9.68;;;7.80;;
30872;SDS011;17579;42.690;2.586;2023-02-12T11:47:58;11.52;;;9.43;;
30872;SDS011;17579;42.690;2.586;2023-02-12T11:50:25;13.88;;;9.60;;
30872;SDS011;17579;42.690;2.586;2023-02-12T11:52:55;10.13;;;9.13;;
30872;SDS011;17579;42.690;2.586;2023-02-12T11:55:25;15.00;;;10.05;;
30872;SDS011;17579;42.690;2.586;2023-02-12T11:58:00;13.07;;;10.35;;
30872;SDS011;17579;42.690;2.586;2023-02-12T12:00:31;12.07;;;10.73;;
30872;SDS011;17579;42.690;2.586;2023-02-12T12:05:36;12.13;;;10.93;;
30872;SDS011;17579;42.690;2.586;2023-02-12T12:10:43;12.88;;;10.20;;
30872;SDS011;17579;42.690;2.586;2023-02-12T12:13:21;12.63;;;10.02;;
30872;SDS011;17579;42.690;2.586;2023-02-12T12:15:56;13.30;;;10.82;;
30872;SDS011;17579;42.690;2.586;2023-02-12T12:18:36;12.32;;;10.23;;
30872;SDS011;17579;42.690;2.586;2023-02-12T12:21:27;14.43;;;11.38;;
30872;SDS011;17579;42.690;2.586;2023-02-12T12:26:30;11.63;;;10.00;;
30872;SDS011;17579;42.690;2.586;2023-02-12T12:29:01;12.73;;;10.73;;
30872;SDS011;17579;42.690;2.586;2023-02-12T12:31:36;11.65;;;10.43;;
30872;SDS011;17579;42.690;2.586;2023-02-12T12:34:07;14.65;;;10.82;;
30872;SDS011;17579;42.690;2.586;2023-02-12T12:39:33;13.05;;;10.25;;
30872;SDS011;17579;42.690;2.586;2023-02-12T12:42:25;12.25;;;10.90;;
30872;SDS011;17579;42.690;2.586;2023-02-12T12:57:48;12.80;;;10.00;;
30872;SDS011;17579;42.690;2.586;2023-02-12T13:12:01;12.48;;;10.32;;
30872;SDS011;17579;42.690;2.586;2023-02-12T13:14:43;11.10;;;9.10;;
30872;SDS011;17579;42.690;2.586;2023-02-12T13:17:18;10.38;;;9.27;;
30872;SDS011;17579;42.690;2.586;2023-02-12T13:20:26;10.65;;;9.60;;
30872;SDS011;17579;42.690;2.586;2023-02-12T13:23:01;12.93;;;9.20;;
30872;SDS011;17579;42.690;2.586;2023-02-12T13:25:35;11.00;;;9.35;;
30872;SDS011;17579;42.690;2.586;2023-02-12T13:28:13;11.13;;;9.85;;
30872;SDS011;17579;42.690;2.586;2023-02-12T13:30:45;12.60;;;11.15;;
30872;SDS011;17579;42.690;2.586;2023-02-12T13:35:45;14.02;;;10.90;;
30872;SDS011;17579;42.690;2.586;2023-02-12T13:38:17;12.35;;;9.65;;
30872;SDS011;17579;42.690;2.586;2023-02-12T13:40:47;13.25;;;9.98;;
30872;SDS011;17579;42.690;2.586;2023-02-12T13:43:21;14.00;;;11.90;;
30872;SDS011;17579;42.690;2.586;2023-02-12T13:48:43;11.13;;;9.95;;
30872;SDS011;17579;42.690;2.586;2023-02-12T13:56:50;11.75;;;10.55;;
30872;SDS011;17579;42.690;2.586;2023-02-12T14:01:46;12.95;;;10.18;;
30872;SDS011;17579;42.690;2.586;2023-02-12T14:07:05;11.85;;;10.57;;
30872;SDS011;17579;42.690;2.586;2023-02-12T14:09:59;12.68;;;11.38;;
30872;SDS011;17579;42.690;2.586;2023-02-12T14:12:31;12.80;;;10.85;;
30872;SDS011;17579;42.690;2.586;2023-02-12T14:17:40;12.77;;;11.15;;
30872;SDS011;17579;42.690;2.586;2023-02-12T14:22:56;12.60;;;10.43;;
30872;SDS011;17579;42.690;2.586;2023-02-12T14:25:44;16.25;;;11.55;;
30872;SDS011;17579;42.690;2.586;2023-02-12T14:28:17;12.70;;;10.55;;
30872;SDS011;17579;42.690;2.586;2023-02-12T14:31:17;12.88;;;11.30;;
30872;SDS011;17579;42.690;2.586;2023-02-12T14:33:45;11.48;;;9.82;;
30872;SDS011;17579;42.690;2.586;2023-02-12T14:36:14;15.65;;;12.52;;
30872;SDS011;17579;42.690;2.586;2023-02-12T14:38:59;13.85;;;10.90;;
30872;SDS011;17579;42.690;2.586;2023-02-12T14:41:29;14.00;;;10.95;;
30872;SDS011;17579;42.690;2.586;2023-02-12T14:49:37;11.32;;;9.57;;
30872;SDS011;17579;42.690;2.586;2023-02-12T14:52:15;12.50;;;10.07;;
30872;SDS011;17579;42.690;2.586;2023-02-12T14:59:42;11.07;;;9.27;;
30872;SDS011;17579;42.690;2.586;2023-02-12T15:04:40;11.10;;;8.18;;
30872;SDS011;17579;42.690;2.586;2023-02-12T15:07:11;10.15;;;9.05;;
30872;SDS011;17579;42.690;2.586;2023-02-12T15:09:45;12.80;;;8.73;;
30872;SDS011;17579;42.690;2.586;2023-02-12T15:12:19;11.65;;;10.13;;
30872;SDS011;17579;42.690;2.586;2023-02-12T15:14:55;11.52;;;8.82;;
30872;SDS011;17579;42.690;2.586;2023-02-12T15:17:28;12.52;;;9.18;;
30872;SDS011;17579;42.690;2.586;2023-02-12T15:20:01;11.85;;;10.40;;
30872;SDS011;17579;42.690;2.586;2023-02-12T15:22:29;13.15;;;9.93;;
30872;SDS011;17579;42.690;2.586;2023-02-12T15:27:26;11.77;;;9.38;;
30872;SDS011;17579;42.690;2.586;2023-02-12T15:29:52;12.95;;;9.93;;
30872;SDS011;17579;42.690;2.586;2023-02-12T15:32:21;12.88;;;9.32;;
30872;SDS011;17579;42.690;2.586;2023-02-12T15:34:49;11.82;;;10.13;;
30872;SDS011;17579;42.690;2.586;2023-02-12T15:37:18;11.50;;;9.90;;
30872;SDS011;17579;42.690;2.586;2023-02-12T15:39:47;12.07;;;10.05;;
30872;SDS011;17579;42.690;2.586;2023-02-12T15:44:42;13.57;;;10.85;;
30872;SDS011;17579;42.690;2.586;2023-02-12T15:47:11;11.90;;;10.63;;
30872;SDS011;17579;42.690;2.586;2023-02-12T15:49:39;13.23;;;10.38;;
30872;SDS011;17579;42.690;2.586;2023-02-12T15:52:07;13.18;;;9.55;;
30872;SDS011;17579;42.690;2.586;2023-02-12T15:54:42;13.43;;;11.30;;
30872;SDS011;17579;42.690;2.586;2023-02-12T15:57:10;14.65;;;12.00;;
30872;SDS011;17579;42.690;2.586;2023-02-12T15:59:37;12.93;;;10.18;;
30872;SDS011;17579;42.690;2.586;2023-02-12T16:02:13;14.68;;;11.73;;
30872;SDS011;17579;42.690;2.586;2023-02-12T16:04:45;16.10;;;11.73;;
30872;SDS011;17579;42.690;2.586;2023-02-12T16:07:11;16.75;;;10.90;;
30872;SDS011;17579;42.690;2.586;2023-02-12T16:09:38;14.70;;;12.18;;
30872;SDS011;17579;42.690;2.586;2023-02-12T16:12:06;14.07;;;11.48;;
30872;SDS011;17579;42.690;2.586;2023-02-12T16:14:40;15.60;;;10.80;;
30872;SDS011;17579;42.690;2.586;2023-02-12T16:19:37;16.52;;;13.88;;
30872;SDS011;17579;42.690;2.586;2023-02-12T16:22:08;18.27;;;13.75;;
30872;SDS011;17579;42.690;2.586;2023-02-12T16:27:08;15.98;;;11.63;;
30872;SDS011;17579;42.690;2.586;2023-02-12T16:29:45;18.75;;;13.88;;
30872;SDS011;17579;42.690;2.586;2023-02-12T16:34:44;18.65;;;13.27;;
30872;SDS011;17579;42.690;2.586;2023-02-12T16:42:09;15.32;;;13.02;;
30872;SDS011;17579;42.690;2.586;2023-02-12T16:44:39;19.00;;;12.95;;
30872;SDS011;17579;42.690;2.586;2023-02-12T16:47:05;19.58;;;13.38;;
30872;SDS011;17579;42.690;2.586;2023-02-12T16:49:30;17.73;;;13.32;;
30872;SDS011;17579;42.690;2.586;2023-02-12T16:52:17;14.63;;;12.20;;
30872;SDS011;17579;42.690;2.586;2023-02-12T16:54:43;16.23;;;12.45;;
30872;SDS011;17579;42.690;2.586;2023-02-12T16:57:09;15.38;;;12.15;;